createdAt,value
2023-05-10T00:00:29.007Z,35.00
2023-05-10T00:02:55.843Z,31.23
2023-05-10T00:05:22.455Z,18.88
2023-05-10T00:07:49.095Z,16.48
2023-05-10T00:10:15.902Z,33.42
2023-05-10T00:12:50.551Z,33.53
2023-05-10T00:15:17.052Z,46.78
2023-05-10T00:17:43.572Z,40.90
2023-05-10T00:20:10.927Z,66.10
2023-05-10T00:22:37.385Z,21.45
2023-05-10T00:25:04.195Z,24.83
2023-05-10T00:27:30.835Z,24.02
2023-05-10T00:29:59.938Z,23.83
2023-05-10T00:32:26.486Z,22.75
2023-05-10T00:34:52.982Z,34.63
2023-05-10T00:37:19.494Z,47.58
2023-05-10T00:39:46.087Z,48.13
2023-05-10T00:42:12.607Z,48.22
2023-05-10T00:44:41.827Z,56.50
2023-05-10T00:47:09.184Z,56.13
2023-05-10T00:49:36.634Z,56.28
2023-05-10T00:52:04.052Z,53.28
2023-05-10T00:54:31.243Z,58.78
2023-05-10T00:57:00.026Z,63.63
2023-05-10T00:59:26.859Z,59.03
2023-05-10T01:01:54.267Z,66.30
2023-05-10T01:04:26.477Z,57.97
2023-05-10T01:09:22.350Z,60.30
2023-05-10T01:11:50.016Z,54.83
2023-05-10T01:14:20.850Z,59.75
2023-05-10T01:16:49.354Z,59.50
2023-05-10T01:19:27.593Z,63.83
2023-05-10T01:22:06.402Z,68.20
2023-05-10T01:24:39.013Z,58.88
2023-05-10T01:27:38.687Z,60.53
2023-05-10T01:30:28.798Z,57.40
2023-05-10T01:32:58.275Z,61.47
2023-05-10T01:35:33.579Z,59.65
2023-05-10T01:38:11.469Z,57.10
2023-05-10T01:40:51.232Z,61.78
2023-05-10T01:43:29.486Z,60.03
2023-05-10T01:46:11.739Z,52.63
2023-05-10T01:48:47.280Z,54.50
2023-05-10T01:51:17.867Z,54.15
2023-05-10T01:53:49.703Z,43.75
2023-05-10T01:56:17.135Z,53.38
2023-05-10T01:58:47.836Z,52.78
2023-05-10T02:01:17.709Z,57.08
2023-05-10T02:03:44.980Z,57.97
2023-05-10T02:06:13.833Z,54.90
2023-05-10T02:08:42.161Z,62.17
2023-05-10T02:11:10.042Z,56.80
2023-05-10T02:13:40.679Z,58.42
2023-05-10T02:16:08.395Z,64.97
2023-05-10T02:18:37.634Z,60.92
2023-05-10T02:21:05.086Z,61.67
2023-05-10T02:23:33.999Z,62.60
2023-05-10T02:26:02.884Z,57.90
2023-05-10T02:28:30.658Z,54.60
2023-05-10T02:30:57.665Z,60.70
2023-05-10T02:33:25.365Z,58.08
2023-05-10T02:35:52.335Z,54.75
2023-05-10T02:38:21.822Z,59.80
2023-05-10T02:40:49.206Z,57.35
2023-05-10T02:43:18.156Z,59.22
2023-05-10T02:45:49.152Z,55.28
2023-05-10T02:48:17.126Z,63.42
2023-05-10T02:50:49.643Z,58.33
2023-05-10T02:53:21.938Z,57.28
2023-05-10T02:55:52.778Z,61.83
2023-05-10T02:58:20.374Z,63.58
2023-05-10T03:00:47.581Z,62.20
2023-05-10T03:03:14.404Z,71.30
2023-05-10T03:05:40.866Z,66.60
2023-05-10T03:08:07.694Z,58.13
2023-05-10T03:10:39.050Z,73.80
2023-05-10T03:13:33.717Z,71.80
2023-05-10T03:16:10.348Z,69.57
2023-05-10T03:18:47.129Z,79.03
2023-05-10T03:21:17.446Z,72.93
2023-05-10T03:24:01.372Z,75.13
2023-05-10T03:26:32.286Z,85.82
2023-05-10T03:29:00.111Z,85.40
2023-05-10T03:31:27.104Z,78.15
2023-05-10T03:33:53.964Z,71.07
2023-05-10T03:36:22.056Z,79.70
2023-05-10T03:38:48.613Z,74.25
2023-05-10T03:41:15.166Z,74.70
2023-05-10T03:43:42.169Z,72.80
2023-05-10T03:46:08.782Z,82.15
2023-05-10T03:48:35.937Z,65.93
2023-05-10T03:51:02.458Z,77.55
2023-05-10T03:53:28.989Z,78.38
2023-05-10T03:55:55.643Z,74.35
2023-05-10T03:58:22.957Z,79.95
2023-05-10T04:00:49.617Z,75.68
2023-05-10T04:03:16.525Z,81.88
2023-05-10T04:05:45.696Z,70.70
2023-05-10T04:08:12.421Z,75.65
2023-05-10T04:10:39.222Z,70.05
2023-05-10T04:13:05.822Z,72.65
2023-05-10T04:15:32.340Z,72.90
2023-05-10T04:17:58.923Z,60.08
2023-05-10T04:20:25.551Z,73.43
2023-05-10T04:22:52.186Z,67.45
2023-05-10T04:25:18.711Z,67.40
2023-05-10T04:27:45.213Z,68.55
2023-05-10T04:30:12.222Z,74.85
2023-05-10T04:32:38.788Z,65.25
2023-05-10T04:35:05.743Z,72.13
2023-05-10T04:37:32.259Z,71.28
2023-05-10T04:40:00.899Z,72.05
2023-05-10T04:42:27.364Z,65.30
2023-05-10T04:44:57.333Z,67.72
2023-05-10T04:47:23.897Z,62.63
2023-05-10T04:49:50.378Z,69.82
2023-05-10T04:52:18.414Z,73.32
2023-05-10T04:54:44.942Z,70.20
2023-05-10T04:57:11.736Z,70.50
2023-05-10T04:59:38.626Z,71.68
2023-05-10T05:02:06.052Z,70.82
2023-05-10T05:04:32.698Z,72.25
2023-05-10T05:06:59.185Z,68.70
2023-05-10T05:09:25.698Z,68.80
2023-05-10T05:11:52.761Z,75.40
2023-05-10T05:14:19.255Z,76.25
2023-05-10T05:16:45.782Z,65.65
2023-05-10T05:19:12.276Z,64.35
2023-05-10T05:21:39.113Z,65.65
2023-05-10T05:24:06.155Z,63.40
2023-05-10T05:26:32.683Z,69.70
2023-05-10T05:28:59.183Z,66.50
2023-05-10T05:31:26.050Z,64.68
2023-05-10T05:33:52.728Z,57.40
2023-05-10T05:36:19.638Z,67.15
2023-05-10T05:38:46.178Z,63.55
2023-05-10T05:41:13.113Z,72.18
2023-05-10T05:43:39.579Z,62.67
2023-05-10T05:46:06.556Z,64.38
2023-05-10T05:48:36.448Z,61.60
2023-05-10T05:51:03.432Z,58.03
2023-05-10T05:53:31.216Z,61.15
2023-05-10T05:55:59.404Z,55.88
2023-05-10T05:58:26.876Z,62.38
2023-05-10T06:00:53.629Z,58.05
2023-05-10T06:03:20.766Z,63.20
2023-05-10T06:05:47.889Z,52.35
2023-05-10T06:08:14.314Z,48.88
2023-05-10T06:10:40.771Z,43.55
2023-05-10T06:13:07.569Z,53.03
2023-05-10T06:15:34.452Z,49.58
2023-05-10T06:18:01.230Z,50.08
2023-05-10T06:20:27.862Z,50.92
2023-05-10T06:22:55.705Z,53.63
2023-05-10T06:25:22.396Z,51.88
2023-05-10T06:27:52.588Z,46.65
2023-05-10T06:30:20.396Z,39.55
2023-05-10T06:32:47.257Z,48.30
2023-05-10T06:35:14.162Z,49.22
2023-05-10T06:37:40.831Z,49.55
2023-05-10T06:40:08.221Z,45.22
2023-05-10T06:42:34.682Z,42.25
2023-05-10T06:45:04.762Z,43.65
2023-05-10T06:47:31.242Z,50.30
2023-05-10T06:50:00.704Z,34.67
2023-05-10T06:52:27.161Z,39.15
2023-05-10T06:54:53.692Z,35.30
2023-05-10T06:57:31.122Z,32.50
2023-05-10T07:00:02.558Z,34.70
2023-05-10T07:02:29.500Z,28.58
2023-05-10T07:04:56.127Z,30.00
2023-05-10T07:07:22.651Z,33.78
2023-05-10T07:09:50.608Z,28.88
2023-05-10T07:12:17.123Z,22.58
2023-05-10T07:14:43.641Z,24.30
2023-05-10T07:17:10.862Z,19.80
2023-05-10T07:19:37.431Z,19.17
2023-05-10T07:22:04.118Z,19.13
2023-05-10T07:24:32.233Z,18.42
2023-05-10T07:26:58.962Z,15.35
2023-05-10T07:29:25.489Z,14.32
2023-05-10T07:31:52.357Z,15.25
2023-05-10T07:34:19.003Z,15.35
2023-05-10T07:36:45.453Z,14.52
2023-05-10T07:39:16.241Z,15.00
2023-05-10T07:41:49.129Z,15.60
2023-05-10T07:44:15.804Z,16.60
2023-05-10T07:46:42.269Z,15.63
2023-05-10T07:49:08.756Z,16.42
2023-05-10T07:51:35.363Z,14.23
2023-05-10T07:54:03.611Z,16.25
2023-05-10T07:56:32.800Z,15.45
2023-05-10T07:59:00.768Z,15.30
2023-05-10T08:01:30.739Z,13.88
2023-05-10T08:03:57.264Z,13.20
2023-05-10T08:06:23.737Z,13.90
2023-05-10T08:08:51.492Z,13.77
2023-05-10T08:11:18.568Z,13.93
2023-05-10T08:13:49.785Z,13.00
2023-05-10T08:16:17.672Z,11.82
2023-05-10T08:18:46.421Z,13.18
2023-05-10T08:21:14.461Z,12.13
2023-05-10T08:23:41.608Z,15.25
2023-05-10T08:26:08.079Z,14.85
2023-05-10T08:28:34.624Z,14.07
2023-05-10T08:31:01.297Z,14.93
2023-05-10T08:33:28.046Z,18.65
2023-05-10T08:35:54.478Z,15.00
2023-05-10T08:38:21.290Z,16.27
2023-05-10T08:40:50.346Z,16.50
2023-05-10T08:43:16.915Z,16.85
2023-05-10T08:45:46.359Z,15.32
2023-05-10T08:48:12.881Z,16.15
2023-05-10T08:50:41.068Z,19.08
2023-05-10T08:53:11.996Z,14.40
2023-05-10T08:55:39.837Z,15.48
2023-05-10T08:58:06.871Z,17.20
2023-05-10T09:00:34.647Z,17.73
2023-05-10T09:03:02.589Z,17.35
2023-05-10T09:05:29.540Z,17.08
2023-05-10T09:07:56.326Z,16.38
2023-05-10T09:10:24.082Z,15.50
2023-05-10T09:12:51.048Z,14.50
2023-05-10T09:15:20.323Z,16.35
2023-05-10T09:17:48.260Z,14.60
2023-05-10T09:20:15.043Z,13.10
2023-05-10T09:22:41.785Z,15.68
2023-05-10T09:25:15.824Z,13.25
2023-05-10T09:27:46.576Z,15.70
2023-05-10T09:30:29.456Z,11.70
2023-05-10T09:32:57.293Z,13.77
2023-05-10T09:35:29.347Z,10.02
2023-05-10T09:37:58.555Z,10.50
2023-05-10T09:40:26.708Z,9.90
2023-05-10T09:43:00.571Z,9.90
2023-05-10T09:45:29.151Z,8.38
2023-05-10T09:47:56.581Z,10.38
2023-05-10T09:50:24.073Z,7.90
2023-05-10T09:53:01.660Z,8.43
2023-05-10T09:55:50.240Z,6.57
2023-05-10T09:58:16.917Z,8.50
2023-05-10T10:00:45.988Z,8.88
2023-05-10T10:03:21.345Z,8.13
2023-05-10T10:05:51.250Z,8.40
2023-05-10T10:08:18.655Z,6.82
2023-05-10T10:10:47.017Z,8.32
2023-05-10T10:13:14.244Z,7.35
2023-05-10T10:15:40.941Z,8.90
2023-05-10T10:18:08.971Z,8.05
2023-05-10T10:20:38.574Z,9.63
2023-05-10T10:23:05.201Z,7.82
2023-05-10T10:25:32.108Z,9.35
2023-05-10T10:28:33.491Z,8.82
2023-05-10T10:31:16.830Z,10.25
2023-05-10T10:34:02.102Z,10.25
2023-05-10T10:36:28.789Z,9.07
2023-05-10T10:39:00.473Z,9.50
2023-05-10T10:41:32.211Z,9.27
2023-05-10T10:44:26.349Z,8.45
2023-05-10T10:47:30.839Z,8.77
2023-05-10T10:50:06.192Z,11.13
2023-05-10T10:52:39.985Z,10.13
2023-05-10T10:55:23.374Z,11.75
2023-05-10T10:58:01.376Z,11.63
2023-05-10T11:00:33.160Z,13.80
2023-05-10T11:03:19.783Z,10.40
2023-05-10T11:05:50.534Z,8.73
2023-05-10T11:08:35.759Z,6.85
2023-05-10T11:11:10.611Z,9.45
2023-05-10T11:13:44.612Z,10.20
2023-05-10T11:16:21.345Z,7.07
2023-05-10T11:19:09.286Z,9.57
2023-05-10T11:21:47.088Z,8.30
2023-05-10T11:24:19.993Z,7.70
2023-05-10T11:26:46.867Z,7.70
2023-05-10T11:29:14.699Z,7.43
2023-05-10T11:31:46.136Z,8.77
2023-05-10T11:34:13.632Z,6.85
2023-05-10T11:36:40.096Z,9.20
2023-05-10T11:39:07.707Z,9.73
2023-05-10T11:41:34.296Z,8.95
2023-05-10T11:44:00.977Z,8.38
2023-05-10T11:46:30.778Z,8.57
2023-05-10T11:49:02.905Z,8.65
2023-05-10T11:51:29.575Z,7.72
2023-05-10T11:53:57.705Z,8.00
2023-05-10T11:56:27.547Z,8.25
2023-05-10T11:59:00.912Z,6.30
2023-05-10T12:01:31.709Z,8.07
2023-05-10T12:04:01.751Z,5.45
2023-05-10T12:06:30.449Z,8.45
2023-05-10T12:08:57.049Z,6.28
2023-05-10T12:11:27.263Z,7.05
2023-05-10T12:13:56.049Z,6.72
2023-05-10T12:16:23.608Z,6.50
2023-05-10T12:18:57.195Z,8.07
2023-05-10T12:21:23.930Z,6.00
2023-05-10T12:23:55.525Z,6.60
2023-05-10T12:26:27.288Z,6.78
2023-05-10T12:29:19.969Z,5.45
2023-05-10T12:31:58.004Z,7.35
2023-05-10T12:34:37.161Z,5.88
2023-05-10T12:37:04.245Z,7.03
2023-05-10T12:39:45.258Z,6.85
2023-05-10T12:42:12.185Z,7.18
2023-05-10T12:44:44.049Z,6.90
2023-05-10T12:49:36.949Z,4.75
2023-05-10T12:52:03.682Z,6.60
2023-05-10T12:54:30.086Z,5.25
2023-05-10T12:56:56.611Z,5.45
2023-05-10T12:59:23.803Z,4.15
2023-05-10T13:01:50.561Z,5.53
2023-05-10T13:04:17.107Z,4.70
2023-05-10T13:06:43.689Z,5.72
2023-05-10T13:09:10.117Z,4.18
2023-05-10T13:11:36.914Z,4.70
2023-05-10T13:14:04.367Z,5.13
2023-05-10T13:16:31.081Z,6.40
2023-05-10T13:18:57.630Z,6.75
2023-05-10T13:21:25.587Z,8.45
2023-05-10T13:23:52.231Z,6.50
2023-05-10T13:26:18.656Z,7.90
2023-05-10T13:28:45.079Z,6.68
2023-05-10T13:31:14.366Z,7.32
2023-05-10T13:33:43.241Z,8.07
2023-05-10T13:36:09.806Z,10.98
2023-05-10T13:38:36.391Z,9.23
2023-05-10T13:41:05.552Z,9.52
2023-05-10T13:43:32.042Z,8.60
2023-05-10T13:45:58.699Z,7.43
2023-05-10T13:48:25.177Z,11.73
2023-05-10T13:50:51.667Z,8.25
2023-05-10T13:53:18.084Z,11.52
2023-05-10T13:55:45.095Z,9.60
2023-05-10T13:58:11.897Z,10.20
2023-05-10T14:00:38.320Z,11.20
2023-05-10T14:03:06.251Z,9.55
2023-05-10T14:05:33.105Z,10.98
2023-05-10T14:07:59.507Z,11.55
2023-05-10T14:10:25.928Z,12.50
2023-05-10T14:12:52.698Z,13.00
2023-05-10T14:15:19.441Z,11.25
2023-05-10T14:17:46.072Z,10.15
2023-05-10T14:20:12.518Z,13.75
2023-05-10T14:22:38.910Z,12.50
2023-05-10T14:25:05.706Z,13.80
2023-05-10T14:27:33.628Z,13.13
2023-05-10T14:30:01.205Z,12.35
2023-05-10T14:32:29.017Z,11.80
2023-05-10T14:34:55.848Z,10.88
2023-05-10T14:37:23.470Z,12.55
2023-05-10T14:39:49.934Z,12.43
2023-05-10T14:42:16.357Z,11.32
2023-05-10T14:44:42.803Z,15.02
2023-05-10T14:47:10.591Z,14.02
2023-05-10T14:49:38.327Z,12.68
2023-05-10T14:52:04.741Z,14.30
2023-05-10T14:54:31.192Z,14.95
2023-05-10T14:56:57.647Z,14.13
2023-05-10T14:59:24.082Z,19.63
2023-05-10T15:01:50.895Z,12.32
2023-05-10T15:04:17.934Z,13.65
2023-05-10T15:06:45.238Z,13.15
2023-05-10T15:09:11.745Z,16.58
2023-05-10T15:11:38.258Z,16.55
2023-05-10T15:14:04.648Z,17.00
2023-05-10T15:16:35.027Z,16.83
2023-05-10T15:19:02.720Z,15.30
2023-05-10T15:21:29.216Z,17.10
2023-05-10T15:23:55.710Z,12.27
2023-05-10T15:26:23.016Z,12.48
2023-05-10T15:28:49.739Z,15.15
2023-05-10T15:31:16.238Z,13.88
2023-05-10T15:33:42.684Z,15.10
2023-05-10T15:36:09.118Z,13.43
2023-05-10T15:38:35.653Z,12.65
2023-05-10T15:41:02.531Z,14.15
2023-05-10T15:43:29.673Z,10.45
2023-05-10T15:45:56.565Z,11.15
2023-05-10T15:48:23.641Z,11.90
2023-05-10T15:50:50.387Z,10.18
2023-05-10T15:53:16.946Z,11.20
2023-05-10T15:55:44.241Z,11.23
2023-05-10T15:58:11.544Z,9.40
2023-05-10T16:00:39.333Z,8.98
2023-05-10T16:03:08.649Z,10.90
2023-05-10T16:05:35.395Z,10.70
2023-05-10T16:08:05.364Z,8.90
2023-05-10T16:10:33.257Z,8.18
2023-05-10T16:13:00.512Z,11.05
2023-05-10T16:15:27.747Z,8.13
2023-05-10T16:17:54.588Z,11.40
2023-05-10T16:20:21.229Z,8.63
2023-05-10T16:22:47.684Z,8.63
2023-05-10T16:25:14.497Z,9.20
2023-05-10T16:27:41.077Z,9.30
2023-05-10T16:30:08.897Z,9.50
2023-05-10T16:32:35.532Z,9.30
2023-05-10T16:35:02.135Z,12.20
2023-05-10T16:37:31.631Z,8.93
2023-05-10T16:39:58.162Z,10.95
2023-05-10T16:42:26.146Z,10.20
2023-05-10T16:44:53.967Z,7.82
2023-05-10T16:47:20.436Z,9.77
2023-05-10T16:49:46.957Z,8.77
2023-05-10T16:52:14.227Z,9.95
2023-05-10T16:54:40.744Z,10.02
2023-05-10T16:57:08.560Z,8.75
2023-05-10T16:59:35.130Z,7.30
2023-05-10T17:02:01.900Z,9.15
2023-05-10T17:04:28.645Z,7.53
2023-05-10T17:06:55.080Z,7.30
2023-05-10T17:09:21.562Z,9.13
2023-05-10T17:11:47.994Z,7.03
2023-05-10T17:14:14.606Z,7.50
2023-05-10T17:16:41.910Z,8.63
2023-05-10T17:19:09.256Z,5.88
2023-05-10T17:21:36.290Z,8.32
2023-05-10T17:24:02.757Z,5.75
2023-05-10T17:26:30.107Z,6.20
2023-05-10T17:28:57.433Z,6.85
2023-05-10T17:31:23.999Z,6.55
2023-05-10T17:33:50.390Z,7.05
2023-05-10T17:36:16.847Z,6.05
2023-05-10T17:38:43.520Z,6.78
2023-05-10T17:41:10.085Z,6.22
2023-05-10T17:43:36.571Z,7.53
2023-05-10T17:46:03.697Z,6.07
2023-05-10T17:48:33.118Z,7.38
2023-05-10T17:50:59.871Z,6.88
2023-05-10T17:53:26.317Z,7.90
2023-05-10T17:55:52.813Z,7.25
2023-05-10T17:58:19.284Z,9.38
2023-05-10T18:00:46.395Z,8.63
2023-05-10T18:03:12.961Z,7.35
2023-05-10T18:05:39.658Z,8.30
2023-05-10T18:08:07.444Z,8.00
2023-05-10T18:10:34.521Z,9.38
2023-05-10T18:13:02.486Z,9.55
2023-05-10T18:15:28.973Z,7.97
2023-05-10T18:17:56.990Z,8.75
2023-05-10T18:20:23.523Z,9.98
2023-05-10T18:22:50.310Z,9.43
2023-05-10T18:25:17.284Z,9.77
2023-05-10T18:27:44.064Z,9.00
2023-05-10T18:30:12.746Z,8.63
2023-05-10T18:32:39.759Z,10.65
2023-05-10T18:35:07.900Z,10.30
2023-05-10T18:37:35.053Z,10.18
2023-05-10T18:40:02.008Z,11.93
2023-05-10T18:42:32.732Z,10.75
2023-05-10T18:44:59.188Z,8.88
2023-05-10T18:47:26.666Z,12.55
2023-05-10T18:49:53.346Z,12.77
2023-05-10T18:52:19.870Z,14.07
2023-05-10T18:54:46.617Z,12.98
2023-05-10T18:57:13.911Z,12.02
2023-05-10T18:59:40.487Z,12.85
2023-05-10T19:02:07.426Z,12.02
2023-05-10T19:04:34.237Z,11.55
2023-05-10T19:07:02.041Z,11.93
2023-05-10T19:09:28.879Z,13.45
2023-05-10T19:11:55.518Z,13.40
2023-05-10T19:14:25.553Z,11.93
2023-05-10T19:16:53.685Z,13.55
2023-05-10T19:19:20.704Z,14.73
2023-05-10T19:21:48.202Z,14.85
2023-05-10T19:24:14.766Z,13.55
2023-05-10T19:26:41.561Z,13.98
2023-05-10T19:29:11.079Z,12.02
2023-05-10T19:31:40.119Z,13.63
2023-05-10T19:34:06.556Z,12.13
2023-05-10T19:36:34.420Z,13.35
2023-05-10T19:39:03.007Z,14.95
2023-05-10T19:41:29.482Z,13.52
2023-05-10T19:43:56.162Z,13.93
2023-05-10T19:46:22.857Z,15.60
2023-05-10T19:48:49.386Z,16.92
2023-05-10T19:51:15.889Z,15.50
2023-05-10T19:53:45.186Z,12.88
2023-05-10T19:56:13.343Z,12.57
2023-05-10T19:58:40.860Z,16.17
2023-05-10T20:01:07.715Z,14.82
2023-05-10T20:03:35.613Z,15.18
2023-05-10T20:06:03.002Z,13.43
2023-05-10T20:08:30.041Z,15.43
2023-05-10T20:10:59.250Z,13.48
2023-05-10T20:13:25.785Z,15.57
2023-05-10T20:15:55.809Z,11.73
2023-05-10T20:18:23.059Z,13.60
2023-05-10T20:20:57.591Z,15.27
2023-05-10T20:23:24.158Z,16.20
2023-05-10T20:25:51.372Z,15.80
2023-05-10T20:28:23.456Z,17.65
2023-05-10T20:30:54.896Z,13.70
2023-05-10T20:33:22.257Z,12.20
2023-05-10T20:35:50.345Z,17.33
2023-05-10T20:38:18.158Z,19.27
2023-05-10T20:40:44.914Z,14.50
2023-05-10T20:43:11.427Z,18.25
2023-05-10T20:45:38.090Z,15.55
2023-05-10T20:48:04.891Z,14.27
2023-05-10T20:50:31.509Z,15.55
2023-05-10T20:52:57.952Z,15.80
2023-05-10T20:55:24.533Z,15.57
2023-05-10T20:57:51.491Z,18.17
2023-05-10T21:00:18.455Z,14.77
2023-05-10T21:02:46.106Z,16.50
2023-05-10T21:05:12.767Z,17.85
2023-05-10T21:07:39.465Z,16.85
2023-05-10T21:10:10.470Z,15.30
2023-05-10T21:12:37.534Z,17.48
2023-05-10T21:15:04.634Z,17.13
2023-05-10T21:17:31.139Z,17.70
2023-05-10T21:19:57.665Z,16.98
2023-05-10T21:22:24.108Z,16.55
2023-05-10T21:24:50.545Z,16.30
2023-05-10T21:27:16.975Z,17.50
2023-05-10T21:29:43.690Z,16.90
2023-05-10T21:32:10.495Z,14.93
2023-05-10T21:34:36.978Z,17.35
2023-05-10T21:37:03.701Z,15.00
2023-05-10T21:39:30.442Z,18.27
2023-05-10T21:41:56.962Z,16.20
2023-05-10T21:44:23.411Z,17.60
2023-05-10T21:46:50.189Z,17.13
2023-05-10T21:49:17.845Z,19.52
2023-05-10T21:51:44.339Z,18.65
2023-05-10T21:54:11.025Z,16.48
2023-05-10T21:56:37.717Z,16.55
2023-05-10T21:59:04.565Z,16.70
2023-05-10T22:01:32.097Z,15.98
2023-05-10T22:03:58.565Z,16.17
2023-05-10T22:06:25.020Z,16.85
2023-05-10T22:08:52.972Z,17.33
2023-05-10T22:11:19.663Z,19.20
2023-05-10T22:13:48.646Z,19.05
2023-05-10T22:16:17.060Z,18.45
2023-05-10T22:18:44.198Z,16.67
2023-05-10T22:21:10.850Z,17.92
2023-05-10T22:23:37.364Z,19.15
2023-05-10T22:26:04.584Z,15.05
2023-05-10T22:28:31.128Z,17.45
2023-05-10T22:30:57.602Z,17.08
2023-05-10T22:33:24.152Z,16.52
2023-05-10T22:35:50.851Z,20.02
2023-05-10T22:38:19.042Z,15.00
2023-05-10T22:40:45.505Z,16.92
2023-05-10T22:43:12.095Z,20.42
2023-05-10T22:45:38.654Z,15.90
2023-05-10T22:48:05.500Z,17.98
2023-05-10T22:50:32.020Z,15.98
2023-05-10T22:52:58.478Z,21.52
2023-05-10T22:55:25.145Z,18.13
2023-05-10T22:57:52.637Z,21.55
2023-05-10T23:00:19.875Z,18.75
2023-05-10T23:02:46.689Z,18.05
2023-05-10T23:05:13.421Z,22.17
2023-05-10T23:07:39.887Z,17.23
2023-05-10T23:10:06.974Z,18.95
2023-05-10T23:12:33.965Z,19.83
2023-05-10T23:15:02.758Z,19.38
2023-05-10T23:17:29.293Z,22.92
2023-05-10T23:19:56.000Z,19.60
2023-05-10T23:22:22.535Z,22.73
2023-05-10T23:24:49.223Z,22.75
2023-05-10T23:27:15.884Z,20.27
2023-05-10T23:29:42.467Z,18.98
2023-05-10T23:32:09.219Z,19.90
2023-05-10T23:34:36.066Z,24.13
2023-05-10T23:37:02.618Z,22.40
2023-05-10T23:39:29.225Z,22.02
2023-05-10T23:41:55.932Z,21.77
2023-05-10T23:44:22.839Z,20.55
2023-05-10T23:46:49.429Z,22.90
2023-05-10T23:49:17.273Z,20.52
2023-05-10T23:51:43.849Z,21.88
2023-05-10T23:54:10.420Z,19.80
2023-05-10T23:56:37.550Z,20.27
2023-05-10T23:59:05.900Z,22.35
